Time;durP1;ratioP1;P1;durP2;ratioP2;P2;SDS_P1;SDS_P2;PMS_P1;PMS_P2;Temp;Humidity;BMP_temperature;BMP_pressure;BME280_temperature;BME280_humidity;BME280_pressure;Samples;Min_cycle;Max_cycle;Signal;HPM_P1;HPM_P2
2021/12/08 00:00:23;;;;;;;13.27;7.43;;;2.00;99.90;;;;;;4146934;28;21008;-77
2021/12/08 00:02:26;;;;;;;12.60;6.97;;;2.00;99.90;;;;;;4152630;28;20504;-77
2021/12/08 00:04:28;;;;;;;13.10;7.37;;;2.00;99.90;;;;;;4164398;28;20511;-77
2021/12/08 00:06:30;;;;;;;12.53;6.67;;;2.00;99.90;;;;;;4164144;28;20498;-77
2021/12/08 00:08:33;;;;;;;11.37;6.77;;;2.00;99.90;;;;;;4164824;28;20440;-77
2021/12/08 00:13:01;;;;;;;11.77;6.90;;;2.00;99.90;;;;;;4163269;28;20817;-77
2021/12/08 00:13:12;;;;;;;14.10;7.30;;;1.90;99.90;;;;;;4147940;28;20494;-77
2021/12/08 00:15:14;;;;;;;13.93;7.30;;;2.00;99.90;;;;;;4160613;28;20838;-77
2021/12/08 00:17:16;;;;;;;12.53;7.00;;;1.90;99.90;;;;;;4161434;28;20265;-77
2021/12/08 00:19:18;;;;;;;12.07;6.67;;;1.90;99.90;;;;;;4159146;28;20496;-77
2021/12/08 00:21:25;;;;;;;11.23;6.80;;;1.90;99.90;;;;;;4164082;28;20945;-76
2021/12/08 00:23:27;;;;;;;13.67;7.10;;;1.90;99.90;;;;;;4161154;28;20480;-77
2021/12/08 00:25:33;;;;;;;14.27;7.07;;;1.90;99.90;;;;;;4163954;28;20836;-76
2021/12/08 00:27:36;;;;;;;12.10;6.97;;;1.80;99.90;;;;;;4164407;28;20470;-77
2021/12/08 00:29:38;;;;;;;11.90;6.40;;;1.80;99.90;;;;;;4158637;28;20892;-77
2021/12/08 00:31:45;;;;;;;10.53;6.27;;;1.80;99.90;;;;;;4147876;28;20905;-78
2021/12/08 00:33:47;;;;;;;12.43;6.80;;;1.80;99.90;;;;;;4154943;28;20491;-78
2021/12/08 00:35:50;;;;;;;13.27;7.10;;;1.80;99.90;;;;;;4164084;28;20453;-77
2021/12/08 00:37:52;;;;;;;13.47;6.90;;;1.80;99.90;;;;;;4148360;28;20852;-77
2021/12/08 00:39:54;;;;;;;12.77;6.47;;;1.80;99.90;;;;;;4165952;28;20869;-77
2021/12/08 00:41:56;;;;;;;11.87;6.50;;;1.80;99.90;;;;;;4180718;28;20467;-77
2021/12/08 00:43:59;;;;;;;12.87;6.80;;;1.80;99.90;;;;;;4174636;28;20858;-77
2021/12/08 00:46:01;;;;;;;12.53;6.67;;;1.80;99.90;;;;;;4162778;28;20469;-77
2021/12/08 00:48:03;;;;;;;12.87;6.37;;;1.80;99.90;;;;;;4164395;28;20456;-77
2021/12/08 00:50:07;;;;;;;12.83;7.20;;;1.80;99.90;;;;;;4165459;28;21349;-77
2021/12/08 00:52:09;;;;;;;16.87;7.43;;;1.80;99.90;;;;;;4165589;28;20468;-77
2021/12/08 00:54:11;;;;;;;15.10;7.47;;;1.80;99.90;;;;;;4164420;28;20468;-77
2021/12/08 00:56:13;;;;;;;15.97;8.07;;;1.70;99.90;;;;;;4159358;28;20479;-78
2021/12/08 00:58:15;;;;;;;13.50;6.60;;;1.70;99.90;;;;;;4164446;28;20531;-77
2021/12/08 01:00:23;;;;;;;13.87;7.50;;;1.70;99.90;;;;;;4163246;28;20496;-77
2021/12/08 01:02:25;;;;;;;18.90;8.93;;;1.70;99.90;;;;;;4164213;28;20904;-78
2021/12/08 01:04:26;;;;;;;17.00;8.50;;;1.70;99.90;;;;;;4160955;28;20538;-77
2021/12/08 01:06:28;;;;;;;18.13;8.70;;;1.70;99.90;;;;;;4147522;28;20519;-77
2021/12/08 01:08:32;;;;;;;18.80;9.00;;;1.70;99.90;;;;;;4147684;28;20969;-77
2021/12/08 01:10:34;;;;;;;19.57;8.77;;;1.60;99.90;;;;;;4152477;28;20452;-77
2021/12/08 01:12:36;;;;;;;18.27;8.70;;;1.60;99.90;;;;;;4162696;28;20615;-77
2021/12/08 01:14:38;;;;;;;19.33;8.57;;;1.60;99.90;;;;;;4163579;28;20848;-78
2021/12/08 01:16:41;;;;;;;21.37;9.33;;;1.60;99.90;;;;;;4163868;28;20467;-77
2021/12/08 01:18:43;;;;;;;19.10;9.30;;;1.60;99.90;;;;;;4159696;28;20481;-77
2021/12/08 01:20:45;;;;;;;20.97;9.80;;;1.50;99.90;;;;;;4150911;28;20948;-77
2021/12/08 01:22:47;;;;;;;23.23;9.83;;;1.50;99.90;;;;;;4162954;28;20479;-78
2021/12/08 01:24:49;;;;;;;26.27;10.50;;;1.50;99.90;;;;;;4163063;28;20462;-77
2021/12/08 01:26:51;;;;;;;25.93;11.23;;;1.50;99.90;;;;;;4159598;28;21035;-77
2021/12/08 01:28:56;;;;;;;24.17;10.83;;;1.50;99.90;;;;;;4146843;28;20452;-77
2021/12/08 01:31:00;;;;;;;26.13;9.77;;;1.50;99.90;;;;;;4156334;28;20468;-77
2021/12/08 01:33:03;;;;;;;25.13;10.90;;;1.50;99.90;;;;;;4161926;28;20580;-77
2021/12/08 01:35:07;;;;;;;27.13;11.47;;;1.40;99.90;;;;;;4163495;28;20471;-77
2021/12/08 01:37:09;;;;;;;29.03;12.00;;;1.40;99.90;;;;;;4157718;28;20483;-77
2021/12/08 01:39:11;;;;;;;24.33;10.30;;;1.40;99.90;;;;;;4147147;28;20891;-77
2021/12/08 01:41:13;;;;;;;26.63;10.10;;;1.40;99.90;;;;;;4152133;28;20484;-77
2021/12/08 01:43:25;;;;;;;26.43;9.87;;;1.40;99.90;;;;;;4163090;28;20983;-77
2021/12/08 01:47:48;;;;;;;29.20;10.70;;;1.40;99.90;;;;;;4147560;28;20508;-78
2021/12/08 01:49:51;;;;;;;27.30;10.83;;;1.40;99.90;;;;;;4147203;28;20456;-78
2021/12/08 01:51:53;;;;;;;25.37;10.43;;;1.40;99.90;;;;;;4150759;28;20463;-77
2021/12/08 01:53:57;;;;;;;28.23;11.57;;;1.40;99.90;;;;;;4163219;28;20483;-77
2021/12/08 01:55:59;;;;;;;23.43;10.50;;;1.30;99.90;;;;;;4152530;28;20484;-77
2021/12/08 01:58:01;;;;;;;26.60;11.90;;;1.30;99.90;;;;;;4162642;28;20468;-78
2021/12/08 02:00:07;;;;;;;22.07;9.63;;;1.40;99.90;;;;;;4163074;28;20894;-77
2021/12/08 02:02:08;;;;;;;24.40;11.00;;;1.30;99.90;;;;;;4163290;28;20441;-77
2021/12/08 02:04:11;;;;;;;25.90;10.43;;;1.30;99.90;;;;;;4162978;28;20509;-77
2021/12/08 02:06:17;;;;;;;26.70;10.87;;;1.30;99.90;;;;;;4148863;28;20903;-77
2021/12/08 02:08:19;;;;;;;25.50;10.63;;;1.30;99.90;;;;;;4158988;28;20464;-77
2021/12/08 02:10:22;;;;;;;27.03;10.70;;;1.30;99.90;;;;;;4162949;28;20459;-77
2021/12/08 02:12:24;;;;;;;20.63;9.27;;;1.30;99.90;;;;;;4162791;28;22509;-77
2021/12/08 02:14:25;;;;;;;25.17;10.03;;;1.30;99.90;;;;;;4160948;28;20487;-76
2021/12/08 02:16:28;;;;;;;26.67;11.07;;;1.30;99.90;;;;;;4163136;28;20813;-77
2021/12/08 02:18:30;;;;;;;22.77;10.00;;;1.20;99.90;;;;;;4163320;28;20461;-77
2021/12/08 02:20:32;;;;;;;22.07;9.97;;;1.20;99.90;;;;;;4162313;28;20510;-77
2021/12/08 02:22:35;;;;;;;25.03;9.53;;;1.20;99.90;;;;;;4163140;28;21005;-77
2021/12/08 02:24:37;;;;;;;24.23;9.47;;;1.20;99.90;;;;;;4163904;28;20455;-77
2021/12/08 02:26:40;;;;;;;22.53;10.00;;;1.20;99.90;;;;;;4161810;28;20503;-78
2021/12/08 02:28:42;;;;;;;22.40;9.47;;;1.20;99.90;;;;;;4162550;28;20453;-77
2021/12/08 02:30:49;;;;;;;22.17;9.87;;;1.20;99.90;;;;;;4160086;28;20471;-77
2021/12/08 02:47:14;;;;;;;21.73;9.27;;;1.10;99.90;;;;;;4162575;28;20625;-76
2021/12/08 02:49:18;;;;;;;20.27;9.17;;;1.00;99.90;;;;;;4155327;28;21007;-76
2021/12/08 02:51:20;;;;;;;20.43;8.70;;;1.10;99.90;;;;;;4149008;28;20452;-76
2021/12/08 02:53:22;;;;;;;20.83;9.17;;;1.10;99.90;;;;;;4162468;28;20586;-76
2021/12/08 02:55:26;;;;;;;20.80;9.07;;;1.10;99.90;;;;;;4162850;28;20505;-76
2021/12/08 02:57:28;;;;;;;20.17;8.67;;;1.00;99.90;;;;;;4169740;28;20954;-76
2021/12/08 02:59:30;;;;;;;18.70;8.67;;;1.00;99.90;;;;;;4162063;28;20486;-76
2021/12/08 03:01:33;;;;;;;23.03;9.77;;;1.00;99.90;;;;;;4162387;28;20467;-77
2021/12/08 03:03:35;;;;;;;24.87;10.03;;;1.00;99.90;;;;;;4162389;28;20549;-76
2021/12/08 03:05:37;;;;;;;24.63;9.67;;;1.00;99.90;;;;;;4162582;28;20511;-76
2021/12/08 03:07:38;;;;;;;23.80;9.13;;;1.00;99.90;;;;;;4155434;28;20525;-76
2021/12/08 03:09:40;;;;;;;24.40;9.83;;;1.00;99.90;;;;;;4163894;28;20947;-76
2021/12/08 03:11:47;;;;;;;22.33;10.10;;;1.00;99.90;;;;;;4148396;28;20540;-76
2021/12/08 03:14:02;;;;;;;25.03;10.40;;;1.00;99.90;;;;;;4149320;28;20470;-76
2021/12/08 03:16:04;;;;;;;21.87;9.70;;;1.00;99.90;;;;;;4149357;28;20459;-76
2021/12/08 03:18:07;;;;;;;22.73;9.10;;;1.00;99.90;;;;;;4149491;28;20459;-76
2021/12/08 03:20:14;;;;;;;25.37;10.60;;;0.90;99.90;;;;;;4153731;28;20482;-78
2021/12/08 03:22:16;;;;;;;26.60;10.10;;;0.90;99.90;;;;;;4162905;28;20563;-77
2021/12/08 03:24:24;;;;;;;25.73;11.10;;;0.90;99.90;;;;;;4182085;28;20452;-76
2021/12/08 03:26:31;;;;;;;27.60;10.67;;;0.90;99.90;;;;;;4167685;28;20930;-77
2021/12/08 03:28:41;;;;;;;25.87;9.20;;;0.90;99.90;;;;;;4164711;28;20458;-77
2021/12/08 03:30:55;;;;;;;25.77;10.13;;;0.90;99.90;;;;;;4156426;28;20463;-77
2021/12/08 03:32:58;;;;;;;25.30;10.63;;;0.90;99.90;;;;;;4165409;28;20504;-77
2021/12/08 03:35:00;;;;;;;22.77;9.63;;;0.90;99.90;;;;;;4168241;28;20496;-76
2021/12/08 03:37:02;;;;;;;28.07;10.90;;;0.80;99.90;;;;;;4169969;28;20501;-77
2021/12/08 03:39:06;;;;;;;25.87;10.23;;;0.80;99.90;;;;;;4150697;28;21031;-76
2021/12/08 03:41:08;;;;;;;25.03;10.80;;;0.80;99.90;;;;;;4156893;28;20482;-77
2021/12/08 03:43:10;;;;;;;28.63;11.00;;;0.80;99.90;;;;;;4165189;28;20565;-76
2021/12/08 03:45:16;;;;;;;24.87;10.30;;;0.80;99.90;;;;;;4165276;28;20473;-77
2021/12/08 03:47:25;;;;;;;24.73;9.53;;;0.80;99.90;;;;;;4175771;28;20464;-76
2021/12/08 03:49:29;;;;;;;24.30;10.43;;;0.80;99.90;;;;;;4175326;28;20507;-76
2021/12/08 03:51:31;;;;;;;27.50;10.93;;;0.80;99.90;;;;;;4164008;28;20960;-77
2021/12/08 03:53:32;;;;;;;23.40;9.83;;;0.70;99.90;;;;;;4164865;28;20537;-76
2021/12/08 03:55:34;;;;;;;26.37;10.40;;;0.70;99.90;;;;;;4163749;28;20996;-76
2021/12/08 03:57:36;;;;;;;26.87;11.07;;;0.70;99.90;;;;;;4165014;28;21062;-76
2021/12/08 03:59:38;;;;;;;25.57;10.90;;;0.70;99.90;;;;;;4178689;28;20996;-76
2021/12/08 04:01:41;;;;;;;25.90;10.23;;;0.70;99.90;;;;;;4173512;28;20480;-76
2021/12/08 04:03:49;;;;;;;28.80;11.13;;;0.70;99.90;;;;;;4155377;28;20483;-76
2021/12/08 04:05:55;;;;;;;29.30;10.83;;;0.70;99.90;;;;;;4158467;28;20465;-76
2021/12/08 04:08:02;;;;;;;29.43;10.50;;;0.70;99.90;;;;;;4164890;28;20463;-76
2021/12/08 04:10:06;;;;;;;27.10;10.27;;;0.70;99.90;;;;;;4169777;28;20450;-76
2021/12/08 04:12:08;;;;;;;23.87;10.00;;;0.70;99.90;;;;;;4161141;28;20470;-77
2021/12/08 04:14:13;;;;;;;24.80;10.33;;;0.70;99.90;;;;;;4164899;28;20451;-77
2021/12/08 04:16:18;;;;;;;24.70;10.57;;;0.70;99.90;;;;;;4165058;28;20454;-77
2021/12/08 04:18:22;;;;;;;26.93;10.73;;;0.70;99.90;;;;;;4164746;28;21486;-76
2021/12/08 04:20:27;;;;;;;21.67;9.53;;;0.70;99.90;;;;;;4157485;28;20540;-77
2021/12/08 04:22:32;;;;;;;25.63;10.87;;;0.70;99.90;;;;;;4158000;28;20474;-76
2021/12/08 04:24:34;;;;;;;26.83;10.20;;;0.70;99.90;;;;;;4164589;28;20460;-78
2021/12/08 04:26:39;;;;;;;23.43;9.77;;;0.70;99.90;;;;;;4164607;28;20458;-76
2021/12/08 04:28:41;;;;;;;27.83;11.27;;;0.70;99.90;;;;;;4164492;28;20528;-76
2021/12/08 04:30:49;;;;;;;25.43;10.10;;;0.80;99.90;;;;;;4150447;28;20468;-76
2021/12/08 04:32:51;;;;;;;27.50;10.30;;;0.80;99.90;;;;;;4163281;28;20540;-75
2021/12/08 04:34:59;;;;;;;26.00;10.73;;;0.80;99.90;;;;;;4176123;28;20463;-76
2021/12/08 04:37:10;;;;;;;25.13;10.60;;;0.80;99.90;;;;;;4164533;28;20494;-76
2021/12/08 04:39:18;;;;;;;23.80;10.37;;;0.90;99.90;;;;;;4152937;28;21022;-76
2021/12/08 04:41:26;;;;;;;23.10;9.97;;;0.80;99.90;;;;;;4147739;28;20495;-76
2021/12/08 04:43:33;;;;;;;21.40;9.37;;;0.90;99.90;;;;;;4158145;28;20481;-77
2021/12/08 04:45:50;;;;;;;26.50;10.63;;;0.90;99.90;;;;;;4174917;28;20462;-77
2021/12/08 04:48:09;;;;;;;21.57;9.80;;;0.90;99.90;;;;;;4160989;28;20482;-76
2021/12/08 04:50:32;;;;;;;23.97;9.87;;;0.90;99.90;;;;;;4154916;28;20513;-76
2021/12/08 04:52:45;;;;;;;22.97;10.07;;;0.90;99.90;;;;;;4163104;28;20512;-76
2021/12/08 05:02:17;;;;;;;21.90;9.13;;;1.00;99.90;;;;;;4163664;28;20540;-77
2021/12/08 05:04:38;;;;;;;23.77;9.63;;;1.10;99.90;;;;;;4163672;28;20475;-77
2021/12/08 05:06:49;;;;;;;20.43;9.17;;;1.00;99.90;;;;;;4149606;28;20474;-76
2021/12/08 05:08:54;;;;;;;23.17;9.40;;;1.00;99.90;;;;;;4154805;28;20521;-76
2021/12/08 05:10:55;;;;;;;24.30;9.30;;;1.10;99.90;;;;;;4157665;28;20470;-77
2021/12/08 05:13:00;;;;;;;25.03;9.63;;;1.10;99.90;;;;;;4146873;28;21051;-76
2021/12/08 05:15:10;;;;;;;23.60;9.93;;;1.10;99.90;;;;;;4162027;28;20865;-78
2021/12/08 05:17:15;;;;;;;23.00;9.20;;;1.10;99.90;;;;;;4163449;28;20525;-77
2021/12/08 05:19:22;;;;;;;22.63;9.37;;;1.10;99.90;;;;;;4165599;28;20991;-76
2021/12/08 05:21:28;;;;;;;24.87;9.50;;;1.10;99.90;;;;;;4155383;28;20495;-77
2021/12/08 05:23:34;;;;;;;24.27;9.57;;;1.20;99.90;;;;;;4155222;28;20564;-77
2021/12/08 05:25:38;;;;;;;24.20;9.23;;;1.20;99.90;;;;;;4162740;28;20514;-78
2021/12/08 05:27:46;;;;;;;22.30;9.13;;;1.20;99.90;;;;;;4163234;28;20451;-78
2021/12/08 05:29:51;;;;;;;21.83;9.30;;;1.20;99.90;;;;;;4162795;28;20463;-77
2021/12/08 05:31:55;;;;;;;22.13;9.07;;;1.20;99.90;;;;;;4168657;28;20971;-76
2021/12/08 05:33:58;;;;;;;23.30;9.37;;;1.20;99.90;;;;;;4174425;28;20495;-76
2021/12/08 05:36:00;;;;;;;21.70;9.63;;;1.20;99.90;;;;;;4161516;28;20525;-76
2021/12/08 05:38:02;;;;;;;20.37;9.30;;;1.30;99.90;;;;;;4162909;28;20514;-77
2021/12/08 05:40:09;;;;;;;22.10;9.80;;;1.30;99.90;;;;;;4166118;28;20935;-76
2021/12/08 05:42:22;;;;;;;21.20;9.30;;;1.30;99.90;;;;;;4146663;28;20495;-77
2021/12/08 05:44:25;;;;;;;26.70;9.27;;;1.30;99.90;;;;;;4146828;28;20468;-76
2021/12/08 05:46:29;;;;;;;21.53;8.97;;;1.30;99.90;;;;;;4149254;28;20475;-78
2021/12/08 05:48:33;;;;;;;22.70;9.57;;;1.30;99.90;;;;;;4160387;28;20481;-76
2021/12/08 05:50:41;;;;;;;22.10;9.40;;;1.30;99.90;;;;;;4162734;28;20467;-78
2021/12/08 05:52:42;;;;;;;19.07;8.80;;;1.30;99.90;;;;;;4162159;28;20536;-77
2021/12/08 05:54:46;;;;;;;22.50;9.30;;;1.30;99.90;;;;;;4165885;28;20455;-76
2021/12/08 05:56:54;;;;;;;22.07;9.40;;;1.30;99.90;;;;;;4179839;28;20865;-76
2021/12/08 05:58:58;;;;;;;21.50;9.20;;;1.30;99.90;;;;;;4161959;28;20529;-77
2021/12/08 06:01:05;;;;;;;20.50;9.70;;;1.30;99.90;;;;;;4165549;28;20541;-77
2021/12/08 06:03:06;;;;;;;23.90;9.83;;;1.30;99.90;;;;;;4162707;28;20476;-76
2021/12/08 06:05:09;;;;;;;26.87;10.30;;;1.40;99.90;;;;;;4162376;28;20445;-76
2021/12/08 06:07:13;;;;;;;24.57;10.57;;;1.30;99.90;;;;;;4163564;28;20463;-76
2021/12/08 06:09:16;;;;;;;24.10;10.47;;;1.40;99.90;;;;;;4159312;28;20513;-77
2021/12/08 06:11:18;;;;;;;27.70;11.20;;;1.30;99.90;;;;;;4154372;28;20472;-76
2021/12/08 06:13:21;;;;;;;26.93;10.70;;;1.30;99.90;;;;;;4156536;28;20499;-78
2021/12/08 06:15:24;;;;;;;24.03;10.70;;;1.40;99.90;;;;;;4163008;28;21079;-77
2021/12/08 06:17:28;;;;;;;29.33;11.37;;;1.40;99.90;;;;;;4162780;28;20539;-76
2021/12/08 06:19:32;;;;;;;24.30;10.43;;;1.40;99.90;;;;;;4161815;28;20455;-77
2021/12/08 06:21:35;;;;;;;24.63;10.30;;;1.40;99.90;;;;;;4158065;28;20503;-78
2021/12/08 06:23:39;;;;;;;28.30;11.60;;;1.40;99.90;;;;;;4160913;28;20482;-77
2021/12/08 06:25:41;;;;;;;26.03;11.13;;;1.40;99.90;;;;;;4160650;28;20953;-77
2021/12/08 06:27:43;;;;;;;25.17;10.47;;;1.40;99.90;;;;;;4160140;28;20448;-77
2021/12/08 06:29:48;;;;;;;26.70;10.73;;;1.40;99.90;;;;;;4159196;28;20467;-77
2021/12/08 06:31:53;;;;;;;26.37;10.53;;;1.40;99.90;;;;;;4159950;28;20514;-77
2021/12/08 06:33:56;;;;;;;28.90;11.00;;;1.40;99.90;;;;;;4162253;28;20515;-77
2021/12/08 06:36:01;;;;;;;26.27;11.93;;;1.40;99.90;;;;;;4160721;28;20521;-76
2021/12/08 06:38:05;;;;;;;25.93;11.17;;;1.40;99.90;;;;;;4162429;28;20462;-77
2021/12/08 06:40:13;;;;;;;29.53;11.10;;;1.50;99.90;;;;;;4159100;28;20534;-75
2021/12/08 06:42:18;;;;;;;28.67;11.67;;;1.50;99.90;;;;;;4161217;28;20554;-76
2021/12/08 06:44:24;;;;;;;25.70;11.90;;;1.50;99.90;;;;;;4161880;28;20453;-76
2021/12/08 06:46:28;;;;;;;29.80;11.23;;;1.50;99.90;;;;;;4161885;28;20787;-76
2021/12/08 06:48:33;;;;;;;27.33;11.10;;;1.50;99.90;;;;;;4161568;28;20471;-76
2021/12/08 06:50:38;;;;;;;26.83;11.30;;;1.50;99.90;;;;;;4159414;28;20543;-76
2021/12/08 06:52:41;;;;;;;32.53;12.37;;;1.50;99.90;;;;;;4162252;28;20467;-76
2021/12/08 06:54:49;;;;;;;23.80;10.83;;;1.50;99.90;;;;;;4161382;28;20563;-76
2021/12/08 06:56:55;;;;;;;25.50;11.63;;;1.50;99.90;;;;;;4158407;28;20961;-76
2021/12/08 06:59:01;;;;;;;25.87;12.07;;;1.50;99.90;;;;;;4159070;28;20476;-80
2021/12/08 07:01:16;;;;;;;25.83;11.07;;;1.50;99.90;;;;;;4155585;28;21048;-77
2021/12/08 07:03:32;;;;;;;26.10;11.10;;;1.50;99.90;;;;;;4155069;28;20492;-76
2021/12/08 07:07:56;;;;;;;28.50;11.70;;;1.60;99.90;;;;;;4155849;28;20490;-76
2021/12/08 07:10:00;;;;;;;30.20;11.70;;;1.60;99.90;;;;;;4155766;28;20460;-77
2021/12/08 07:12:07;;;;;;;28.27;11.17;;;1.60;99.90;;;;;;4152534;28;20546;-76
2021/12/08 07:14:10;;;;;;;25.53;12.30;;;1.60;99.90;;;;;;4155706;28;20804;-76
2021/12/08 07:16:16;;;;;;;26.43;11.43;;;1.60;99.90;;;;;;4155488;28;20906;-75
2021/12/08 07:18:24;;;;;;;26.90;11.60;;;1.60;99.90;;;;;;4148578;28;20517;-76
2021/12/08 07:20:42;;;;;;;28.53;11.80;;;1.70;99.90;;;;;;4155549;28;20562;-76
2021/12/08 07:22:46;;;;;;;27.90;12.10;;;1.70;99.90;;;;;;4155675;28;20499;-75
2021/12/08 07:24:50;;;;;;;30.60;12.53;;;1.70;99.90;;;;;;4153919;28;20477;-76
2021/12/08 07:26:58;;;;;;;28.27;11.67;;;1.70;99.90;;;;;;4153446;28;20465;-76
2021/12/08 07:29:02;;;;;;;25.73;11.87;;;1.70;99.90;;;;;;4154096;28;20464;-78
2021/12/08 07:31:09;;;;;;;27.77;12.13;;;1.70;99.90;;;;;;4155781;28;20559;-77
2021/12/08 07:33:11;;;;;;;29.00;12.40;;;1.70;99.90;;;;;;4155525;28;20640;-77
2021/12/08 07:35:19;;;;;;;28.67;12.00;;;1.80;99.90;;;;;;4156357;28;21022;-77
2021/12/08 07:37:26;;;;;;;27.87;11.47;;;1.80;99.90;;;;;;4154851;28;20468;-76
2021/12/08 07:39:31;;;;;;;29.13;12.67;;;1.80;99.90;;;;;;4156181;28;20945;-76
2021/12/08 07:41:36;;;;;;;28.20;12.00;;;1.70;99.90;;;;;;4155715;28;20483;-75
2021/12/08 07:43:40;;;;;;;29.90;11.47;;;1.80;99.90;;;;;;4155995;28;20537;-76
2021/12/08 07:45:47;;;;;;;27.37;12.70;;;1.80;99.90;;;;;;4155244;28;20463;-75
2021/12/08 07:47:51;;;;;;;30.30;12.43;;;1.80;99.90;;;;;;4155957;28;20460;-76
2021/12/08 07:49:58;;;;;;;25.07;11.77;;;1.80;99.90;;;;;;4154861;28;20506;-76
2021/12/08 07:52:08;;;;;;;29.87;12.23;;;1.80;99.90;;;;;;4156353;28;20475;-75
2021/12/08 07:54:11;;;;;;;30.47;11.90;;;1.90;99.90;;;;;;4155280;28;20500;-76
2021/12/08 07:56:16;;;;;;;27.60;11.90;;;1.90;99.90;;;;;;4156993;28;20529;-78
2021/12/08 07:58:20;;;;;;;27.33;12.20;;;1.90;99.90;;;;;;4158945;28;20456;-76
2021/12/08 08:00:28;;;;;;;24.63;11.83;;;1.90;99.90;;;;;;4156001;28;20503;-75
2021/12/08 08:02:30;;;;;;;28.20;12.00;;;1.90;99.90;;;;;;4157055;28;20491;-76
2021/12/08 08:04:32;;;;;;;27.93;12.27;;;1.90;99.90;;;;;;4139835;28;21067;-76
2021/12/08 08:06:37;;;;;;;29.47;11.50;;;2.00;99.90;;;;;;4140349;28;20519;-77
2021/12/08 08:08:40;;;;;;;29.70;12.83;;;2.00;99.90;;;;;;4142181;28;20534;-76
2021/12/08 08:10:46;;;;;;;23.97;11.73;;;2.00;99.90;;;;;;4140180;28;20503;-76
2021/12/08 08:12:57;;;;;;;25.70;12.03;;;2.00;99.90;;;;;;4142806;28;21244;-76
2021/12/08 08:15:10;;;;;;;26.07;11.93;;;2.00;99.90;;;;;;4143664;28;20505;-75
2021/12/08 08:17:16;;;;;;;29.10;11.80;;;2.00;99.90;;;;;;4143988;28;20460;-75
2021/12/08 08:19:25;;;;;;;24.97;11.60;;;2.10;99.90;;;;;;4146185;28;20592;-78
2021/12/08 08:21:30;;;;;;;25.60;11.60;;;2.10;99.90;;;;;;4143753;28;20469;-76
2021/12/08 08:23:33;;;;;;;27.27;11.40;;;2.10;99.90;;;;;;4146269;28;20503;-76
2021/12/08 08:25:39;;;;;;;25.50;11.47;;;2.10;99.90;;;;;;4146266;28;20497;-76
2021/12/08 08:27:41;;;;;;;25.03;11.43;;;2.10;99.90;;;;;;4141456;28;22838;-76
2021/12/08 08:29:43;;;;;;;28.40;11.23;;;2.10;99.90;;;;;;4141637;28;21182;-78
2021/12/08 08:31:53;;;;;;;27.03;11.30;;;2.20;99.90;;;;;;4146138;28;20907;-75
2021/12/08 08:33:55;;;;;;;24.20;10.70;;;2.20;99.90;;;;;;4151202;28;20871;-76
2021/12/08 08:36:04;;;;;;;26.20;11.20;;;2.20;99.90;;;;;;4146040;28;20472;-76
2021/12/08 08:38:10;;;;;;;24.70;10.43;;;2.20;99.90;;;;;;4147863;28;20863;-76
2021/12/08 08:40:18;;;;;;;22.73;10.43;;;2.20;99.90;;;;;;4148165;28;20850;-76
2021/12/08 08:42:24;;;;;;;23.03;10.80;;;2.30;99.90;;;;;;4145411;28;20592;-76
2021/12/08 08:44:29;;;;;;;26.43;10.43;;;2.30;99.90;;;;;;4153064;28;20468;-77
2021/12/08 08:46:37;;;;;;;24.17;10.90;;;2.30;99.90;;;;;;4145984;28;21000;-76
2021/12/08 08:48:42;;;;;;;21.83;10.00;;;2.40;99.90;;;;;;4146480;28;20520;-76
2021/12/08 08:50:47;;;;;;;23.33;11.00;;;2.40;99.90;;;;;;4148258;28;20970;-76
2021/12/08 08:52:52;;;;;;;24.17;11.07;;;2.40;99.90;;;;;;4151877;28;20492;-76
2021/12/08 08:54:57;;;;;;;23.30;10.70;;;2.50;99.90;;;;;;4155527;28;20507;-77
2021/12/08 08:57:04;;;;;;;23.13;10.17;;;2.50;99.90;;;;;;4157576;28;20530;-78
2021/12/08 08:59:13;;;;;;;26.33;10.73;;;2.50;99.90;;;;;;4153462;28;20529;-76
2021/12/08 09:01:20;;;;;;;23.67;10.67;;;2.50;99.90;;;;;;4155137;28;20904;-75
2021/12/08 09:03:26;;;;;;;22.77;11.03;;;2.60;99.90;;;;;;4150539;28;21689;-77
2021/12/08 09:05:31;;;;;;;22.07;10.43;;;2.60;99.90;;;;;;4149891;28;20468;-76
2021/12/08 09:07:39;;;;;;;26.47;10.67;;;2.60;99.90;;;;;;4157449;28;21011;-76
2021/12/08 09:09:46;;;;;;;20.80;9.60;;;2.70;99.90;;;;;;4156778;28;20977;-75
2021/12/08 09:11:51;;;;;;;21.63;10.30;;;2.70;99.90;;;;;;4153727;28;20465;-76
2021/12/08 09:14:00;;;;;;;23.30;9.63;;;2.70;99.90;;;;;;4155837;28;20828;-77
2021/12/08 09:16:08;;;;;;;20.80;9.17;;;2.70;99.90;;;;;;4156751;28;20485;-77
2021/12/08 09:18:15;;;;;;;21.33;8.77;;;2.70;99.90;;;;;;4155932;28;20551;-77
2021/12/08 09:20:24;;;;;;;22.77;9.20;;;2.70;99.90;;;;;;4152797;28;20471;-76
2021/12/08 09:22:34;;;;;;;21.73;9.53;;;2.70;99.90;;;;;;4153527;28;20492;-76
2021/12/08 09:24:45;;;;;;;23.27;9.87;;;2.70;99.90;;;;;;4158383;28;20453;-76
2021/12/08 09:26:51;;;;;;;18.90;8.53;;;2.80;99.90;;;;;;4156562;28;20576;-77
2021/12/08 09:28:56;;;;;;;21.77;9.43;;;2.80;99.90;;;;;;4159133;28;20474;-76
2021/12/08 09:31:04;;;;;;;18.20;8.43;;;2.80;99.90;;;;;;4159124;28;20883;-76
2021/12/08 09:33:18;;;;;;;18.87;8.93;;;2.80;99.90;;;;;;4160603;28;20485;-76
2021/12/08 09:35:23;;;;;;;18.10;8.53;;;2.90;99.90;;;;;;4161827;28;20836;-75
2021/12/08 09:37:27;;;;;;;16.40;8.43;;;2.90;99.90;;;;;;4158896;28;20543;-76
2021/12/08 09:39:34;;;;;;;18.07;8.67;;;2.90;99.90;;;;;;4157714;28;20527;-76
2021/12/08 09:41:40;;;;;;;17.23;7.90;;;2.90;99.90;;;;;;4156972;28;20456;-76
2021/12/08 09:43:45;;;;;;;19.67;8.30;;;3.00;99.90;;;;;;4153887;28;20842;-75
2021/12/08 09:45:51;;;;;;;18.27;7.97;;;3.00;99.90;;;;;;4152744;28;20955;-76
2021/12/08 09:47:53;;;;;;;17.33;8.10;;;3.00;99.90;;;;;;4156725;28;20507;-77
2021/12/08 09:49:57;;;;;;;14.50;7.70;;;3.00;99.90;;;;;;4154034;28;20473;-76
2021/12/08 09:52:01;;;;;;;18.50;8.47;;;3.00;99.90;;;;;;4157467;28;20481;-76
2021/12/08 09:54:03;;;;;;;15.17;7.50;;;3.00;99.90;;;;;;4155705;28;21284;-76
2021/12/08 09:56:05;;;;;;;16.57;7.80;;;3.10;99.90;;;;;;4150350;28;20474;-76
2021/12/08 09:58:07;;;;;;;15.33;7.67;;;3.10;99.90;;;;;;4153748;28;20970;-75
2021/12/08 10:00:15;;;;;;;15.53;7.53;;;3.10;99.90;;;;;;4155560;28;20462;-75
2021/12/08 10:02:25;;;;;;;15.77;6.77;;;3.10;99.90;;;;;;4153669;28;20921;-76
2021/12/08 10:04:27;;;;;;;15.27;6.90;;;3.10;99.90;;;;;;4152219;28;20788;-76
2021/12/08 10:06:30;;;;;;;15.93;7.30;;;3.10;99.90;;;;;;4153984;28;21289;-76
2021/12/08 10:08:32;;;;;;;15.00;6.67;;;3.10;99.90;;;;;;4156177;28;20488;-76
2021/12/08 10:10:34;;;;;;;16.00;7.00;;;3.20;99.90;;;;;;4154847;28;20454;-77
2021/12/08 10:12:37;;;;;;;19.27;7.47;;;3.20;99.90;;;;;;4155955;28;20528;-76
2021/12/08 10:14:39;;;;;;;14.43;6.57;;;3.20;99.90;;;;;;4156261;28;20468;-76
2021/12/08 10:16:42;;;;;;;16.00;7.43;;;3.30;99.90;;;;;;4149350;28;20475;-75
2021/12/08 10:18:47;;;;;;;13.17;6.77;;;3.30;99.90;;;;;;4139491;28;20583;-76
2021/12/08 10:20:52;;;;;;;13.43;6.77;;;3.30;99.90;;;;;;4133599;28;20473;-76
2021/12/08 10:23:22;;;;;;;11.30;6.20;;;3.40;99.90;;;;;;4134945;28;20508;-76
2021/12/08 10:25:24;;;;;;;13.20;6.37;;;3.40;99.90;;;;;;4142842;28;20913;-77
2021/12/08 10:27:26;;;;;;;13.30;6.13;;;3.40;99.90;;;;;;4144542;28;20832;-76
2021/12/08 10:29:30;;;;;;;12.90;6.40;;;3.40;99.90;;;;;;4149700;28;20900;-77
2021/12/08 10:31:34;;;;;;;16.93;7.20;;;3.50;99.90;;;;;;4144884;28;20556;-80
2021/12/08 10:36:22;;;;;;;17.23;7.13;;;3.50;99.90;;;;;;4143741;28;20466;-80
2021/12/08 10:38:40;;;;;;;15.40;6.67;;;3.50;99.90;;;;;;4151440;28;20462;-80
2021/12/08 10:40:58;;;;;;;16.47;6.97;;;3.50;99.90;;;;;;4158556;28;20449;-79
2021/12/08 10:43:12;;;;;;;14.23;6.57;;;3.50;99.90;;;;;;4149802;28;20497;-79
2021/12/08 10:45:21;;;;;;;14.30;6.63;;;3.50;99.90;;;;;;4151841;28;20457;-77
2021/12/08 10:47:25;;;;;;;12.73;6.17;;;3.60;99.90;;;;;;4149193;28;20498;-77
2021/12/08 10:54:27;;;;;;;13.50;6.33;;;3.60;99.90;;;;;;4155654;28;20519;-78
2021/12/08 10:56:36;;;;;;;16.80;6.77;;;3.70;99.90;;;;;;4156866;28;20923;-77
2021/12/08 10:58:40;;;;;;;12.93;6.27;;;3.70;99.90;;;;;;4153649;28;20592;-77
2021/12/08 11:00:42;;;;;;;14.83;6.97;;;3.70;99.90;;;;;;4153049;28;21040;-76
2021/12/08 11:02:47;;;;;;;12.47;6.30;;;3.70;99.90;;;;;;4154272;28;20913;-77
2021/12/08 11:04:49;;;;;;;13.40;6.53;;;3.70;99.90;;;;;;4153672;28;20473;-76
2021/12/08 11:06:52;;;;;;;12.37;5.80;;;3.70;99.90;;;;;;4155664;28;20454;-77
2021/12/08 11:08:56;;;;;;;12.73;6.23;;;3.70;99.90;;;;;;4156209;28;20470;-77
2021/12/08 11:11:03;;;;;;;9.97;5.03;;;3.70;99.90;;;;;;4156461;28;20527;-81
2021/12/08 11:13:07;;;;;;;7.93;4.13;;;3.70;99.90;;;;;;4154252;28;20530;-77
2021/12/08 11:15:20;;;;;;;8.63;3.70;;;3.70;99.90;;;;;;4154864;28;20468;-76
2021/12/08 11:17:26;;;;;;;6.93;3.57;;;3.70;99.90;;;;;;4151940;28;20501;-76
2021/12/08 11:19:28;;;;;;;6.87;3.73;;;3.70;99.90;;;;;;4155310;28;20457;-76
2021/12/08 11:21:36;;;;;;;8.23;3.50;;;3.70;99.90;;;;;;4154506;28;20477;-76